LRBC/BCM METAR and TAF weather

Enter ICAO airport designator
Station Type Date Time Source
LRBC METAR 2022/01/29 10:30 UTC NOAA

LRBC 291030Z 36010KT 330V030 9999 BKN060 03/M06 Q1021


Station Type Date Time Source
LRBC Decoded METAR 2022/01/29 10:30 UTC NOAA

Bacau, Romania (LRBC) 46-35N 026-58E 190M
Jan 29, 2022 - 05:30 AM EST / 2022.01.29 1030 UTC
Wind: from the N (360 degrees) at 12 MPH (10 KT) (direction variable):0
Visibility: greater than 7 mile(s):0
Sky conditions: mostly cloudy
Temperature: 37 F (3 C)
Dew Point: 21 F (-6 C)
Relative Humidity: 51%
Pressure (altimeter): 30.15 in. Hg (1021 hPa)
ob: LRBC 291030Z 36010KT 330V030 9999 BKN060 03/M06 Q1021
cycle: 10

Station Type Date Time Source
LRBC TAF 2010/08/31 20:30 UTC NOAA

TAF LRBC 312030Z 3121/0203 CNL

Example: see airport list